| time (UTC) | temp F | wind direction | speed knots | gust knots | rain 1hr in | rain 24hr in | rain mn in | humidity % | barometer mb |
| 20260502200125 | 111 | 248 | 6.1 | 9.6 | 0.00 | 0.00 | 0.00 | 41 | 1014.9 |
| 20260502195034 | 111 | 180 | 15.6 | 19.1 | 0.00 | 0.00 | 0.00 | 40 | 1015.2 |
| 20260502194527 | 109 | 180 | 6.1 | 19.1 | 0.00 | 0.00 | 0.00 | 41 | 1015.2 |
| 20260502194023 | 109 | 270 | 6.1 | 15.6 | 0.00 | 0.00 | 0.00 | 41 | 1015.2 |
| 20260502193521 | 109 | 338 | 15.6 | 25.2 | 0.00 | 0.00 | 0.00 | 41 | 1015.2 |
| 20260502193020 | 111 | 293 | 9.6 | 19.1 | 0.00 | 0.00 | 0.00 | 40 | 1015.6 |
| 20260502192513 | 111 | 225 | 6.1 | 15.6 | 0.00 | 0.00 | 0.00 | 41 | 1015.6 |
| 20260502192009 | 111 | 203 | 9.6 | 21.7 | 0.00 | 0.00 | 0.00 | 41 | 1015.6 |
| 20260502191501 | 111 | 203 | 9.6 | 9.6 | 0.00 | 0.00 | 0.00 | 41 | 1015.6 |
| 20260502190954 | 109 | 270 | 9.6 | 19.1 | 0.00 | 0.00 | 0.00 | 41 | 1015.6 |
| 20260502190453 | 109 | 293 | 6.1 | 19.1 | 0.00 | 0.00 | 0.00 | 41 | 1015.6 |
| 20260502185946 | 109 | 203 | 6.1 | 9.6 | 0.00 | 0.00 | 0.00 | 41 | 1015.9 |
| 20260502185448 | 108 | 315 | 15.6 | 15.6 | 0.00 | 0.00 | 0.00 | 41 | 1015.9 |
| 20260502184939 | 108 | 203 | 11.3 | 21.7 | 0.00 | 0.00 | 0.00 | 41 | 1015.9 |
| 20260502184431 | 109 | 248 | 11.3 | 31.3 | 0.00 | 0.00 | 0.00 | 42 | 1015.9 |
| 20260502183933 | 109 | 338 | 26.9 | 26.9 | 0.00 | 0.00 | 0.00 | 40 | 1015.9 |
| 20260502183424 | 109 | 135 | 6.1 | 15.6 | 0.00 | 0.00 | 0.00 | 42 | 1015.9 |
| 20260502182917 | 109 | 338 | 11.3 | 25.2 | 0.00 | 0.00 | 0.00 | 41 | 1015.9 |
| 20260502182420 | 109 | 315 | 9.6 | 21.7 | 0.00 | 0.00 | 0.00 | 41 | 1015.9 |
| 20260502181913 | 109 | 68 | 0.0 | 6.1 | 0.00 | 0.00 | 0.00 | 41 | 1015.9 |
| 20260502181409 | 108 | 293 | 11.3 | 19.1 | 0.00 | 0.00 | 0.00 | 43 | 1015.9 |
| 20260502180906 | 108 | 248 | 9.6 | 21.7 | 0.00 | 0.00 | 0.00 | 44 | 1016.3 |
| 20260502180406 | 108 | 338 | 15.6 | 19.1 | 0.00 | 0.00 | 0.00 | 44 | 1016.3 |
| 20260502170316 | 104 | 293 | 6.1 | 34.8 | 0.00 | 0.00 | 0.00 | 49 | 1016.6 |
| 20260502164241 | 106 | 203 | 6.1 | 9.6 | 0.00 | 0.00 | 0.00 | 48 | 1016.6 |
| 20260502163739 | 106 | 338 | 21.7 | 21.7 | 0.00 | 0.00 | 0.00 | 47 | 1016.6 |
| 20260502163231 | 106 | 180 | 6.1 | 19.1 | 0.00 | 0.00 | 0.00 | 48 | 1016.6 |
| 20260502162734 | 106 | 180 | 9.6 | 25.2 | 0.00 | 0.00 | 0.00 | 47 | 1016.6 |
| 20260502162243 | 109 | 338 | 9.6 | 9.6 | 0.00 | 0.00 | 0.00 | 43 | 1016.6 |
| 20260502161229 | 108 | 270 | 9.6 | 15.6 | 0.00 | 0.00 | 0.00 | 44 | 1016.6 |
| 20260502160715 | 108 | 225 | 11.3 | 15.6 | 0.00 | 0.00 | 0.00 | 44 | 1016.6 |
| 20260502160209 | 108 | 225 | 6.1 | 11.3 | 0.00 | 0.00 | 0.00 | 44 | 1016.6 |
| 20260502152132 | 106 | 248 | 9.6 | 9.6 | 0.00 | 0.00 | 0.00 | 46 | 1016.3 |
| 20260502151627 | 106 | 248 | 9.6 | 0.0 | 0.00 | 0.00 | 0.00 | 46 | 1016.3 |
| 20260502151122 | 104 | 203 | 9.6 | 9.6 | 0.00 | 0.00 | 0.00 | 46 | 1016.3 |
| 20260502150629 | 102 | 248 | 9.6 | 11.3 | 0.00 | 0.00 | 0.00 | 47 | 1016.3 |
| 20260502150117 | 102 | 203 | 9.6 | 9.6 | 0.00 | 0.00 | 0.00 | 47 | 1016.3 |
| 20260502130351 | 90 | 158 | 6.1 | 6.1 | 0.00 | 0.00 | 0.00 | 60 | 1014.6 |
| 20260502123332 | 84 | 293 | 3.5 | 6.1 | 0.00 | 0.00 | 0.00 | 67 | 1013.9 |
| 20260502122827 | 82 | 203 | 6.1 | 6.1 | 0.00 | 0.00 | 0.00 | 67 | 1013.9 |
| 20260502122321 | 82 | 203 | 3.5 | 6.1 | 0.00 | 0.00 | 0.00 | 67 | 1013.6 |
| 20260502121814 | 82 | 203 | 6.1 | 9.6 | 0.00 | 0.00 | 0.00 | 67 | 1013.6 |
| 20260502121312 | 82 | 23 | 0.0 | 9.6 | 0.00 | 0.00 | 0.00 | 67 | 1013.6 |
| 20260502120812 | 82 | 225 | 3.5 | 6.1 | 0.00 | 0.00 | 0.00 | 67 | 1013.6 |
| 20260502120310 | 82 | 225 | 6.1 | 6.1 | 0.00 | 0.00 | 0.00 | 67 | 1013.6 |
| 20260502115809 | 82 | 225 | 6.1 | 9.6 | 0.00 | 0.00 | 0.00 | 67 | 1013.2 |
| 20260502115306 | 82 | 158 | 3.5 | 3.5 | 0.00 | 0.00 | 0.00 | 67 | 1013.2 |
| 20260502114804 | 82 | 225 | 9.6 | 9.6 | 0.00 | 0.00 | 0.00 | 66 | 1013.2 |
| 20260502114300 | 82 | 180 | 6.1 | 6.1 | 0.00 | 0.00 | 0.00 | 66 | 1013.2 |
| 20260502113249 | 82 | 225 | 6.1 | 9.6 | 0.00 | 0.00 | 0.00 | 66 | 1012.9 |
| 20260502112744 | 82 | 293 | 6.1 | 9.6 | 0.00 | 0.00 | 0.00 | 66 | 1012.5 |
| 20260502112238 | 82 | 225 | 0.0 | 6.1 | 0.00 | 0.00 | 0.00 | 65 | 1012.5 |
| 20260502111809 | 82 | 225 | 6.1 | 9.6 | 0.00 | 0.00 | 0.00 | 65 | 1012.5 |
| 20260502111242 | 84 | 225 | 6.1 | 9.6 | 0.00 | 0.00 | 0.00 | 65 | 1012.5 |
| 20260502110740 | 84 | 225 | 0.0 | 0.0 | 0.00 | 0.00 | 0.00 | 65 | 1012.5 |
| 20260502110233 | 82 | 225 | 9.6 | 9.6 | 0.00 | 0.00 | 0.00 | 65 | 1012.5 |
| 20260502105733 | 84 | 248 | 6.1 | 9.6 | 0.00 | 0.00 | 0.00 | 65 | 1012.5 |
| 20260502104318 | 84 | 90 | 3.5 | 6.1 | 0.00 | 0.00 | 0.00 | 66 | 1012.5 |
| 20260502103807 | 84 | 293 | 6.1 | 9.6 | 0.00 | 0.00 | 0.00 | 66 | 1012.5 |
| 20260502103304 | 84 | 113 | 3.5 | 6.1 | 0.00 | 0.00 | 0.00 | 66 | 1012.2 |
| 20260502102807 | 84 | 225 | 11.3 | 21.7 | 0.00 | 0.00 | 0.00 | 66 | 1012.2 |
| 20260502102257 | 84 | 225 | 9.6 | 11.3 | 0.00 | 0.00 | 0.00 | 67 | 1012.2 |
| 20260502101749 | 84 | 203 | 9.6 | 9.6 | 0.00 | 0.00 | 0.00 | 67 | 1012.2 |
| 20260502101249 | 84 | 180 | 6.1 | 6.1 | 0.00 | 0.00 | 0.00 | 67 | 1011.8 |
| 20260502100743 | 84 | 203 | 9.6 | 9.6 | 0.00 | 0.00 | 0.00 | 67 | 1011.8 |
| 20260502100239 | 84 | 225 | 9.6 | 11.3 | 0.00 | 0.00 | 0.00 | 67 | 1011.8 |
| 20260502091413 | 84 | 248 | 6.1 | 9.6 | 0.00 | 0.00 | 0.00 | 64 | 1011.8 |
| 20260502090909 | 84 | 180 | 0.0 | 6.1 | 0.00 | 0.00 | 0.00 | 64 | 1011.8 |
| 20260502090407 | 84 | 158 | 6.1 | 9.6 | 0.00 | 0.00 | 0.00 | 64 | 1011.8 |
| 20260502071152 | 86 | 225 | 6.1 | 11.3 | 0.00 | 0.00 | 0.00 | 57 | 1012.2 |
| 20260502070654 | 86 | 270 | 9.6 | 9.6 | 0.00 | 0.00 | 0.00 | 57 | 1012.2 |
| 20260502070148 | 86 | 203 | 9.6 | 9.6 | 0.00 | 0.00 | 0.00 | 57 | 1012.5 |
| 20260502065643 | 86 | 203 | 6.1 | 11.3 | 0.00 | 0.00 | 0.00 | 57 | 1012.5 |
| 20260502065141 | 86 | 248 | 6.1 | 9.6 | 0.00 | 0.00 | 0.00 | 57 | 1012.5 |
| 20260502064637 | 86 | 225 | 6.1 | 9.6 | 0.00 | 0.00 | 0.00 | 56 | 1012.5 |
| 20260502064137 | 86 | 180 | 9.6 | 9.6 | 0.00 | 0.00 | 0.00 | 56 | 1012.5 |
| 20260502063629 | 88 | 225 | 6.1 | 6.1 | 0.00 | 0.00 | 0.00 | 56 | 1012.5 |
| 20260502063127 | 88 | 180 | 9.6 | 9.6 | 0.00 | 0.00 | 0.00 | 56 | 1012.2 |
| 20260502062625 | 88 | 180 | 6.1 | 9.6 | 0.00 | 0.00 | 0.00 | 56 | 1012.5 |
| 20260502062125 | 88 | 225 | 6.1 | 9.6 | 0.00 | 0.00 | 0.00 | 56 | 1012.5 |
| 20260502061118 | 88 | 203 | 0.0 | 9.6 | 0.00 | 0.00 | 0.00 | 56 | 1012.5 |
| 20260502060617 | 88 | 270 | 6.1 | 9.6 | 0.00 | 0.00 | 0.00 | 56 | 1012.5 |
| 20260502060113 | 88 | 180 | 6.1 | 9.6 | 0.00 | 0.00 | 0.00 | 56 | 1012.5 |
| 20260502055611 | 88 | 203 | 9.6 | 9.6 | 0.00 | 0.00 | 0.00 | 56 | 1012.5 |
| 20260502055106 | 88 | 225 | 0.0 | 0.0 | 0.00 | 0.00 | 0.00 | 56 | 1012.5 |
| 20260502054603 | 88 | 180 | 0.0 | 0.0 | 0.00 | 0.00 | 0.00 | 56 | 1012.5 |
| 20260502053558 | 88 | 180 | 0.0 | 0.0 | 0.00 | 0.00 | 0.00 | 56 | 1012.5 |
| 20260502053053 | 88 | 203 | 0.0 | 0.0 | 0.00 | 0.00 | 0.00 | 56 | 1012.5 |
| 20260502052548 | 88 | 248 | 0.0 | 9.6 | 0.00 | 0.00 | 0.00 | 57 | 1012.5 |
| 20260502052043 | 88 | 248 | 6.1 | 6.1 | 0.00 | 0.00 | 0.00 | 57 | 1012.5 |
| 20260502051535 | 88 | 203 | 6.1 | 6.1 | 0.00 | 0.00 | 0.00 | 57 | 1012.5 |
| 20260502051036 | 88 | 203 | 6.1 | 6.1 | 0.00 | 0.00 | 0.00 | 57 | 1012.5 |
| 20260502050526 | 88 | 203 | 6.1 | 6.1 | 0.00 | 0.00 | 0.00 | 57 | 1012.5 |
| 20260502050021 | 88 | 203 | 6.1 | 6.1 | 0.00 | 0.00 | 0.00 | 58 | 1012.9 |
| 20260502045516 | 88 | 158 | 0.0 | 6.1 | 0.00 | 0.00 | 0.00 | 58 | 1012.9 |
| 20260502045014 | 88 | 113 | 3.5 | 6.1 | 0.00 | 0.00 | 0.00 | 58 | 1012.5 |
| 20260502044511 | 88 | 203 | 6.1 | 9.6 | 0.00 | 0.00 | 0.00 | 58 | 1012.5 |
| 20260502044006 | 88 | 203 | 6.1 | 6.1 | 0.00 | 0.00 | 0.00 | 58 | 1012.5 |
| 20260502043501 | 88 | 225 | 3.5 | 3.5 | 0.00 | 0.00 | 0.00 | 58 | 1012.5 |
| 20260502043004 | 88 | 180 | 6.1 | 9.6 | 0.00 | 0.00 | 0.00 | 58 | 1012.5 |
| 20260502042458 | 88 | 225 | 0.0 | 0.0 | 0.00 | 0.00 | 0.00 | 59 | 1012.2 |
| 20260502041956 | 90 | 225 | 0.0 | 0.0 | 0.00 | 0.00 | 0.00 | 60 | 1012.2 |
| 20260502041459 | 90 | 248 | 0.0 | 0.0 | 0.00 | 0.00 | 0.00 | 61 | 1012.2 |
| 20260502040952 | 90 | 158 | 0.0 | 0.0 | 0.00 | 0.00 | 0.00 | 62 | 1012.2 |
| 20260502040451 | 90 | 158 | 0.0 | 0.0 | 0.00 | 0.00 | 0.00 | 63 | 1012.2 |
| 20260502035952 | 90 | 180 | 0.0 | 0.0 | 0.00 | 0.00 | 0.00 | 63 | 1012.2 |
| 20260502035441 | 90 | 315 | 0.0 | 0.0 | 0.00 | 0.00 | 0.00 | 62 | 1012.2 |
| 20260502034934 | 90 | 270 | 0.0 | 0.0 | 0.00 | 0.00 | 0.00 | 62 | 1012.2 |
| 20260502034429 | 90 | 203 | 0.0 | 0.0 | 0.00 | 0.00 | 0.00 | 62 | 1011.8 |
| 20260502033927 | 90 | 225 | 0.0 | 0.0 | 0.00 | 0.00 | 0.00 | 62 | 1011.8 |
| 20260502033420 | 90 | 180 | 0.0 | 0.0 | 0.00 | 0.00 | 0.00 | 62 | 1011.5 |
| 20260502032911 | 90 | 270 | 0.0 | 0.0 | 0.00 | 0.00 | 0.00 | 63 | 1011.5 |
| 20260502032406 | 91 | 203 | 0.0 | 0.0 | 0.00 | 0.00 | 0.00 | 63 | 1011.2 |
| 20260502031905 | 91 | 203 | 3.5 | 6.1 | 0.00 | 0.00 | 0.00 | 63 | 1011.2 |
| 20260502031358 | 91 | 180 | 0.0 | 0.0 | 0.00 | 0.00 | 0.00 | 63 | 1011.5 |
| 20260502030856 | 91 | 203 | 0.0 | 6.1 | 0.00 | 0.00 | 0.00 | 64 | 1011.5 |
| 20260502030429 | 91 | 203 | 6.1 | 6.1 | 0.00 | 0.00 | 0.00 | 64 | 1011.5 |
| 20260502024055 | 93 | 158 | 0.0 | 0.0 | 0.00 | 0.00 | 0.00 | 66 | 1010.8 |
| 20260502023550 | 93 | 225 | 0.0 | 0.0 | 0.00 | 0.00 | 0.00 | 67 | 1010.8 |
| 20260502023048 | 93 | 225 | 0.0 | 0.0 | 0.00 | 0.00 | 0.00 | 67 | 1010.8 |
| 20260502022540 | 93 | 225 | 0.0 | 0.0 | 0.00 | 0.00 | 0.00 | 68 | 1010.5 |
| 20260502022038 | 93 | 225 | 0.0 | 0.0 | 0.00 | 0.00 | 0.00 | 68 | 1010.5 |
| 20260502021536 | 93 | 203 | 0.0 | 0.0 | 0.00 | 0.00 | 0.00 | 68 | 1010.5 |
| 20260502021025 | 93 | 113 | 0.0 | 0.0 | 0.00 | 0.00 | 0.00 | 67 | 1010.5 |
| 20260502020517 | 93 | 225 | 6.1 | 6.1 | 0.00 | 0.00 | 0.00 | 67 | 1010.5 |
| 20260502015510 | 93 | 225 | 0.0 | 6.1 | 0.00 | 0.00 | 0.00 | 67 | 1010.2 |
| 20260502015012 | 93 | 90 | 0.0 | 0.0 | 0.00 | 0.00 | 0.00 | 67 | 1009.8 |
| 20260502014507 | 93 | 225 | 0.0 | 6.1 | 0.00 | 0.00 | 0.00 | 67 | 1009.8 |
| 20260502014015 | 93 | 225 | 6.1 | 6.1 | 0.00 | 0.00 | 0.00 | 66 | 1009.5 |
| 20260502011402 | 93 | 113 | 0.0 | 0.0 | 0.00 | 0.00 | 0.00 | 64 | 1009.5 |
| 20260502010857 | 95 | 90 | 0.0 | 0.0 | 0.00 | 0.00 | 0.00 | 64 | 1009.1 |
| 20260502010357 | 95 | 225 | 0.0 | 0.0 | 0.00 | 0.00 | 0.00 | 63 | 1009.1 |
| 20260502005849 | 95 | 225 | 0.0 | 0.0 | 0.00 | 0.00 | 0.00 | 62 | 1008.8 |
| 20260502005347 | 97 | 248 | 0.0 | 0.0 | 0.00 | 0.00 | 0.00 | 62 | 1008.8 |
| 20260502004015 | 97 | 270 | 0.0 | 6.1 | 0.00 | 0.00 | 0.00 | 61 | 1008.8 |
| 20260502003509 | 97 | 180 | 0.0 | 0.0 | 0.00 | 0.00 | 0.00 | 60 | 1008.8 |
| 20260502003007 | 97 | 158 | 3.5 | 9.6 | 0.00 | 0.00 | 0.00 | 59 | 1008.5 |
| 20260502002506 | 97 | 113 | 6.1 | 19.1 | 0.00 | 0.00 | 0.00 | 59 | 1008.5 |
| 20260502002008 | 97 | 203 | 6.1 | 19.1 | 0.00 | 0.00 | 0.00 | 59 | 1008.5 |
| 20260502001500 | 99 | 113 | 6.1 | 11.3 | 0.00 | 0.00 | 0.00 | 59 | 1008.1 |
| 20260502000952 | 97 | 113 | 11.3 | 26.9 | 0.00 | 0.00 | 0.00 | 58 | 1008.1 |
| 20260502000446 | 99 | 113 | 11.3 | 15.6 | 0.00 | 0.00 | 0.00 | 58 | 1008.1 |
| 20260501235939 | 99 | 68 | 0.0 | 19.1 | 0.00 | 0.00 | 0.00 | 58 | 1008.1 |
| 20260501235433 | 99 | 158 | 0.0 | 25.2 | 0.00 | 0.00 | 0.00 | 57 | 1008.1 |
| 20260501234929 | 100 | 68 | 0.0 | 15.6 | 0.00 | 0.00 | 0.00 | 56 | 1008.1 |
| 20260501234424 | 100 | 113 | 3.5 | 11.3 | 0.00 | 0.00 | 0.00 | 55 | 1008.1 |
| 20260501233924 | 102 | 158 | 6.1 | 21.7 | 0.00 | 0.00 | 0.00 | 55 | 1008.1 |
| 20260501233420 | 102 | 113 | 3.5 | 15.6 | 0.00 | 0.00 | 0.00 | 54 | 1007.8 |
| 20260501232921 | 102 | 90 | 6.1 | 15.6 | 0.00 | 0.00 | 0.00 | 53 | 1007.8 |
| 20260501232436 | 104 | 90 | 0.0 | 0.0 | 0.00 | 0.00 | 0.00 | 52 | 1007.8 |
| 20260501231458 | 104 | 113 | 9.6 | 21.7 | 0.00 | 0.00 | 0.00 | 52 | 1007.4 |
| 20260501230858 | 104 | 180 | 19.1 | 21.7 | 0.00 | 0.00 | 0.00 | 52 | 1007.4 |
| 20260501230343 | 106 | 180 | 11.3 | 11.3 | 0.00 | 0.00 | 0.00 | 51 | 1007.4 |
| 20260501225843 | 108 | 203 | 11.3 | 21.7 | 0.00 | 0.00 | 0.00 | 50 | 1007.4 |
| 20260501225330 | 106 | 113 | 15.6 | 21.7 | 0.00 | 0.00 | 0.00 | 50 | 1007.4 |
| 20260501224829 | 108 | 158 | 0.0 | 9.6 | 0.00 | 0.00 | 0.00 | 49 | 1007.4 |
| 20260501224326 | 108 | 113 | 9.6 | 19.1 | 0.00 | 0.00 | 0.00 | 49 | 1007.4 |
| 20260501223814 | 108 | 225 | 6.1 | 9.6 | 0.00 | 0.00 | 0.00 | 50 | 1007.4 |
| 20260501223320 | 106 | 158 | 9.6 | 25.2 | 0.00 | 0.00 | 0.00 | 49 | 1007.4 |
| 20260501221434 | 109 | 248 | 6.1 | 19.1 | 0.00 | 0.00 | 0.00 | 46 | 1007.4 |
| 20260501220928 | 109 | 113 | 6.1 | 11.3 | 0.00 | 0.00 | 0.00 | 47 | 1007.4 |
| 20260501220426 | 111 | 225 | 11.3 | 21.7 | 0.00 | 0.00 | 0.00 | 45 | 1007.4 |
| 20260501215923 | 113 | 180 | 6.1 | 6.1 | 0.00 | 0.00 | 0.00 | 43 | 1007.4 |
| 20260501215417 | 115 | 90 | 25.2 | 25.2 | 0.00 | 0.00 | 0.00 | 43 | 1007.4 |
| 20260501214912 | 113 | 225 | 6.1 | 11.3 | 0.00 | 0.00 | 0.00 | 44 | 1007.4 |
| 20260501214410 | 115 | 158 | 6.1 | 9.6 | 0.00 | 0.00 | 0.00 | 42 | 1007.4 |
| 20260501213908 | 117 | 113 | 6.1 | 21.7 | 0.00 | 0.00 | 0.00 | 41 | 1007.8 |
| 20260501213358 | 118 | 113 | 6.1 | 11.3 | 0.00 | 0.00 | 0.00 | 38 | 1007.8 |
| 20260501212849 | 118 | 180 | 6.1 | 9.6 | 0.00 | 0.00 | 0.00 | 37 | 1007.8 |
| 20260501212345 | 118 | 248 | 6.1 | 9.6 | 0.00 | 0.00 | 0.00 | 36 | 1007.8 |
| 20260501211842 | 117 | 158 | 0.0 | 9.6 | 0.00 | 0.00 | 0.00 | 38 | 1007.8 |
| 20260501211344 | 117 | 68 | 6.1 | 9.6 | 0.00 | 0.00 | 0.00 | 38 | 1007.8 |
| 20260501210833 | 118 | 180 | 9.6 | 9.6 | 0.00 | 0.00 | 0.00 | 37 | 1008.1 |
| 20260501210329 | 118 | 90 | 9.6 | 11.3 | 0.00 | 0.00 | 0.00 | 37 | 1008.1 |
| 20260501205827 | 118 | 45 | 0.0 | 11.3 | 0.00 | 0.00 | 0.00 | 36 | 1008.1 |
| 20260501205327 | 118 | 180 | 6.1 | 9.6 | 0.00 | 0.00 | 0.00 | 37 | 1008.1 |
| 20260501204819 | 118 | 180 | 9.6 | 9.6 | 0.00 | 0.00 | 0.00 | 37 | 1008.5 |
| 20260501204315 | 117 | 180 | 6.1 | 11.3 | 0.00 | 0.00 | 0.00 | 37 | 1008.5 |
| 20260501203815 | 118 | 180 | 6.1 | 9.6 | 0.00 | 0.00 | 0.00 | 37 | 1008.5 |
| 20260501203309 | 118 | 158 | 6.1 | 11.3 | 0.00 | 0.00 | 0.00 | 37 | 1008.5 |
| 20260501202816 | 118 | 248 | 6.1 | 9.6 | 0.00 | 0.00 | 0.00 | 37 | 1008.5 |
| 20260501202306 | 118 | 270 | 6.1 | 11.3 | 0.00 | 0.00 | 0.00 | 36 | 1008.5 |
| 20260501201757 | 120 | 248 | 9.6 | 9.6 | 0.00 | 0.00 | 0.00 | 37 | 1008.8 |
| 20260501201258 | 117 | 270 | 0.0 | 9.6 | 0.00 | 0.00 | 0.00 | 37 | 1008.8 |
| 20260501200749 | 118 | 158 | 6.1 | 9.6 | 0.00 | 0.00 | 0.00 | 37 | 1009.5 |